ROTAER D-AMDT 48/21 Ver mudanças

Teixeira de Freitas ( SNTF ) / TEIXEIRA DE FREITAS, BA 17 31 28S/039 40 06W
AD PUB Governo do Estado UTC-3 VFR L21 , L26 105 (344)

11 - L12 - ( 1460x30 ASPH 31/F/A/X/T L14 , L15 ) - L12 - 29

SBRE (CINDACTA 3)

RMK -

HORÁRIO DE FUNCIONAMENTO
  1. AD OPS VFR Noturna PPR e COOR O/R com antecedência MNM de 04HR para LDG previsto através do TEL: (71) 99670-9061.
INFORMAÇÃO METEOROLÓGICA FORNECIDA
  1. MET Estação de Radiodifusão Automática de Aeródromo (ERAA) FREQ 132.350MHZ.
  2. Usar código de localidade SNTF para acessar METAR/SPECI na REDEMET.
INFORMAÇÃO ADICIONAL
  1. Contatos telefônicos: (71) 99670-9061 e (73) 99903-6387.
TEMP (0)

Suplementos AIP (0)

NOTAM (3)

NAV

B1754/21 N 30/11/2021 21:17
Q) SBRE/QWULW/IV/M /W /000/010/1745S03940W003
UA (FLT RPA) ACONTECERA CENTRO COORD 174438.79S/0393940.83W RAIO 5000M

ORIGEM: SDIA B511C657

B1752/21 N 30/11/2021 18:43
Q) SBRE/QWULW/IV/M /W /000/005/1759S03959W003
UA (FLT RPA) ACONTECERA CENTRO COORD 175903.06S/0395911.33W RAIO 5KM

ORIGEM: SDIA B130C998

B1745/21 N 30/11/2021 13:35
Q) SBRE/QWULW/IV/M /W /000/008/1755S03943W003
UA (FLT RPA) ACONTECERA CENTRO COORD 175458.41S / 0394244.46W RAIO 5000M

ORIGEM: SDIA B22D5735


Nascer/Por do Sol

07:56

21:04


METAR

TAF

071630Z 0718/0806 03005KT 9999 BKN035 TX29/0718Z TN21/0805Z PROB40 0719/0723 3000 +TSRA BR BKN008 FEW030CB BECMG 0723/0801 8000 RA BKN025 RMK PGG=


Cartas (0)


Rotas Preferenciais (0)